sensor_id;sensor_type;location;lat;lon;timestamp;P1;durP1;ratioP1;P2;durP2;ratioP2
15096;SDS011;7649;52.084;7.478;2023-04-29T00:02:02;49.63;;;36.10;;
15096;SDS011;7649;52.084;7.478;2023-04-29T00:04:31;54.63;;;37.17;;
15096;SDS011;7649;52.084;7.478;2023-04-29T00:07:00;49.07;;;35.10;;
15096;SDS011;7649;52.084;7.478;2023-04-29T00:09:30;55.30;;;36.73;;
15096;SDS011;7649;52.084;7.478;2023-04-29T00:11:58;54.43;;;37.83;;
15096;SDS011;7649;52.084;7.478;2023-04-29T00:14:27;56.93;;;38.57;;
15096;SDS011;7649;52.084;7.478;2023-04-29T00:16:56;55.27;;;37.80;;
15096;SDS011;7649;52.084;7.478;2023-04-29T00:19:25;57.30;;;37.07;;
15096;SDS011;7649;52.084;7.478;2023-04-29T00:21:54;51.27;;;34.80;;
15096;SDS011;7649;52.084;7.478;2023-04-29T00:24:22;48.73;;;33.47;;
15096;SDS011;7649;52.084;7.478;2023-04-29T00:26:52;44.67;;;32.27;;
15096;SDS011;7649;52.084;7.478;2023-04-29T00:29:20;44.33;;;30.97;;
15096;SDS011;7649;52.084;7.478;2023-04-29T00:31:48;42.03;;;30.97;;
15096;SDS011;7649;52.084;7.478;2023-04-29T00:34:16;44.33;;;30.83;;
15096;SDS011;7649;52.084;7.478;2023-04-29T00:36:45;42.70;;;30.67;;
15096;SDS011;7649;52.084;7.478;2023-04-29T00:39:13;43.07;;;30.43;;
15096;SDS011;7649;52.084;7.478;2023-04-29T00:41:41;40.10;;;28.80;;
15096;SDS011;7649;52.084;7.478;2023-04-29T00:44:11;39.77;;;29.10;;
15096;SDS011;7649;52.084;7.478;2023-04-29T00:46:39;38.93;;;28.27;;
15096;SDS011;7649;52.084;7.478;2023-04-29T00:49:08;38.40;;;27.47;;
15096;SDS011;7649;52.084;7.478;2023-04-29T00:51:37;38.77;;;27.23;;
15096;SDS011;7649;52.084;7.478;2023-04-29T00:54:07;39.03;;;29.07;;
15096;SDS011;7649;52.084;7.478;2023-04-29T00:56:36;41.47;;;28.67;;
15096;SDS011;7649;52.084;7.478;2023-04-29T00:59:07;41.00;;;30.23;;
15096;SDS011;7649;52.084;7.478;2023-04-29T01:01:39;39.03;;;28.77;;
15096;SDS011;7649;52.084;7.478;2023-04-29T01:04:07;37.83;;;28.77;;
15096;SDS011;7649;52.084;7.478;2023-04-29T01:06:40;38.27;;;28.13;;
15096;SDS011;7649;52.084;7.478;2023-04-29T01:09:21;35.43;;;26.97;;
15096;SDS011;7649;52.084;7.478;2023-04-29T01:11:54;34.43;;;26.37;;
15096;SDS011;7649;52.084;7.478;2023-04-29T01:14:26;34.73;;;26.30;;
15096;SDS011;7649;52.084;7.478;2023-04-29T01:16:58;31.50;;;25.73;;
15096;SDS011;7649;52.084;7.478;2023-04-29T01:19:32;32.03;;;25.27;;
15096;SDS011;7649;52.084;7.478;2023-04-29T01:22:01;34.37;;;25.27;;
15096;SDS011;7649;52.084;7.478;2023-04-29T01:24:30;31.73;;;24.57;;
15096;SDS011;7649;52.084;7.478;2023-04-29T01:27:01;32.80;;;25.27;;
15096;SDS011;7649;52.084;7.478;2023-04-29T01:29:34;29.67;;;24.73;;
15096;SDS011;7649;52.084;7.478;2023-04-29T01:32:05;29.23;;;24.77;;
15096;SDS011;7649;52.084;7.478;2023-04-29T01:34:38;31.47;;;25.57;;
15096;SDS011;7649;52.084;7.478;2023-04-29T01:37:11;34.27;;;26.13;;
15096;SDS011;7649;52.084;7.478;2023-04-29T01:39:44;34.50;;;26.60;;
15096;SDS011;7649;52.084;7.478;2023-04-29T01:42:14;35.97;;;27.77;;
15096;SDS011;7649;52.084;7.478;2023-04-29T01:44:43;35.90;;;27.57;;
15096;SDS011;7649;52.084;7.478;2023-04-29T01:47:12;39.03;;;29.77;;
15096;SDS011;7649;52.084;7.478;2023-04-29T01:49:41;37.17;;;28.97;;
15096;SDS011;7649;52.084;7.478;2023-04-29T01:52:11;40.37;;;31.20;;
15096;SDS011;7649;52.084;7.478;2023-04-29T01:54:40;40.67;;;30.77;;
15096;SDS011;7649;52.084;7.478;2023-04-29T01:57:09;41.70;;;30.70;;
15096;SDS011;7649;52.084;7.478;2023-04-29T01:59:38;42.67;;;31.90;;
15096;SDS011;7649;52.084;7.478;2023-04-29T02:02:07;40.47;;;31.77;;
15096;SDS011;7649;52.084;7.478;2023-04-29T02:04:35;45.03;;;31.87;;
15096;SDS011;7649;52.084;7.478;2023-04-29T02:07:03;45.00;;;32.27;;
15096;SDS011;7649;52.084;7.478;2023-04-29T02:09:32;45.43;;;33.67;;
15096;SDS011;7649;52.084;7.478;2023-04-29T02:12:00;43.53;;;32.83;;
15096;SDS011;7649;52.084;7.478;2023-04-29T02:14:31;41.50;;;32.17;;
15096;SDS011;7649;52.084;7.478;2023-04-29T02:17:02;46.03;;;33.07;;
15096;SDS011;7649;52.084;7.478;2023-04-29T02:19:30;42.97;;;33.27;;
15096;SDS011;7649;52.084;7.478;2023-04-29T02:21:58;44.13;;;33.63;;
15096;SDS011;7649;52.084;7.478;2023-04-29T02:24:26;41.27;;;32.40;;
15096;SDS011;7649;52.084;7.478;2023-04-29T02:26:55;43.10;;;33.03;;
15096;SDS011;7649;52.084;7.478;2023-04-29T02:29:24;42.53;;;33.27;;
15096;SDS011;7649;52.084;7.478;2023-04-29T02:31:56;40.87;;;31.10;;
15096;SDS011;7649;52.084;7.478;2023-04-29T02:34:24;40.53;;;31.50;;
15096;SDS011;7649;52.084;7.478;2023-04-29T02:36:53;38.10;;;31.97;;
15096;SDS011;7649;52.084;7.478;2023-04-29T02:39:21;41.70;;;31.97;;
15096;SDS011;7649;52.084;7.478;2023-04-29T02:41:52;40.53;;;32.53;;
15096;SDS011;7649;52.084;7.478;2023-04-29T02:44:21;38.33;;;32.00;;
15096;SDS011;7649;52.084;7.478;2023-04-29T02:46:49;46.60;;;31.80;;
15096;SDS011;7649;52.084;7.478;2023-04-29T02:49:19;39.47;;;31.97;;
15096;SDS011;7649;52.084;7.478;2023-04-29T02:51:47;37.77;;;32.20;;
15096;SDS011;7649;52.084;7.478;2023-04-29T02:54:15;37.73;;;31.80;;
15096;SDS011;7649;52.084;7.478;2023-04-29T02:56:44;38.13;;;31.40;;
15096;SDS011;7649;52.084;7.478;2023-04-29T02:59:12;36.23;;;30.70;;
15096;SDS011;7649;52.084;7.478;2023-04-29T03:01:40;39.40;;;31.73;;
15096;SDS011;7649;52.084;7.478;2023-04-29T03:04:08;39.43;;;32.67;;
15096;SDS011;7649;52.084;7.478;2023-04-29T03:06:38;37.70;;;30.00;;
15096;SDS011;7649;52.084;7.478;2023-04-29T03:09:07;36.13;;;30.23;;
15096;SDS011;7649;52.084;7.478;2023-04-29T03:11:35;34.57;;;30.23;;
15096;SDS011;7649;52.084;7.478;2023-04-29T03:14:03;36.03;;;29.83;;
15096;SDS011;7649;52.084;7.478;2023-04-29T03:16:32;38.30;;;30.33;;
15096;SDS011;7649;52.084;7.478;2023-04-29T03:19:00;33.87;;;29.33;;
15096;SDS011;7649;52.084;7.478;2023-04-29T03:21:28;32.33;;;28.40;;
15096;SDS011;7649;52.084;7.478;2023-04-29T03:23:58;33.27;;;28.17;;
15096;SDS011;7649;52.084;7.478;2023-04-29T03:26:26;33.67;;;29.43;;
15096;SDS011;7649;52.084;7.478;2023-04-29T03:28:54;33.73;;;30.07;;
15096;SDS011;7649;52.084;7.478;2023-04-29T03:31:23;31.97;;;28.53;;
15096;SDS011;7649;52.084;7.478;2023-04-29T03:33:52;30.70;;;26.17;;
15096;SDS011;7649;52.084;7.478;2023-04-29T03:36:20;29.37;;;26.20;;
15096;SDS011;7649;52.084;7.478;2023-04-29T03:38:48;31.70;;;27.67;;
15096;SDS011;7649;52.084;7.478;2023-04-29T03:41:18;31.07;;;26.80;;
15096;SDS011;7649;52.084;7.478;2023-04-29T03:43:49;31.90;;;26.93;;
15096;SDS011;7649;52.084;7.478;2023-04-29T03:46:17;30.37;;;27.10;;
15096;SDS011;7649;52.084;7.478;2023-04-29T03:48:45;31.00;;;27.60;;
15096;SDS011;7649;52.084;7.478;2023-04-29T03:51:16;32.37;;;27.37;;
15096;SDS011;7649;52.084;7.478;2023-04-29T03:53:45;31.47;;;28.07;;
15096;SDS011;7649;52.084;7.478;2023-04-29T03:56:13;34.07;;;27.70;;
15096;SDS011;7649;52.084;7.478;2023-04-29T03:58:44;33.10;;;27.20;;
15096;SDS011;7649;52.084;7.478;2023-04-29T04:01:12;29.93;;;26.30;;
15096;SDS011;7649;52.084;7.478;2023-04-29T04:03:41;33.87;;;28.10;;
15096;SDS011;7649;52.084;7.478;2023-04-29T04:06:09;31.10;;;27.70;;
15096;SDS011;7649;52.084;7.478;2023-04-29T04:08:37;30.90;;;27.47;;
15096;SDS011;7649;52.084;7.478;2023-04-29T04:11:06;30.73;;;27.10;;
15096;SDS011;7649;52.084;7.478;2023-04-29T04:13:34;34.63;;;27.73;;
15096;SDS011;7649;52.084;7.478;2023-04-29T04:16:04;33.97;;;27.43;;
15096;SDS011;7649;52.084;7.478;2023-04-29T04:18:33;33.40;;;28.53;;
15096;SDS011;7649;52.084;7.478;2023-04-29T04:21:04;33.87;;;28.63;;
15096;SDS011;7649;52.084;7.478;2023-04-29T04:23:32;36.57;;;29.27;;
15096;SDS011;7649;52.084;7.478;2023-04-29T04:26:01;33.57;;;27.97;;
15096;SDS011;7649;52.084;7.478;2023-04-29T04:28:29;36.03;;;30.03;;
15096;SDS011;7649;52.084;7.478;2023-04-29T04:30:57;39.23;;;31.17;;
15096;SDS011;7649;52.084;7.478;2023-04-29T04:33:27;36.23;;;28.50;;
15096;SDS011;7649;52.084;7.478;2023-04-29T04:35:55;35.10;;;28.70;;
15096;SDS011;7649;52.084;7.478;2023-04-29T04:38:23;38.70;;;29.87;;
15096;SDS011;7649;52.084;7.478;2023-04-29T04:40:52;38.67;;;28.80;;
15096;SDS011;7649;52.084;7.478;2023-04-29T04:43:21;37.77;;;29.00;;
15096;SDS011;7649;52.084;7.478;2023-04-29T04:45:49;36.40;;;28.93;;
15096;SDS011;7649;52.084;7.478;2023-04-29T04:48:18;35.40;;;29.33;;
15096;SDS011;7649;52.084;7.478;2023-04-29T04:50:47;37.70;;;28.73;;
15096;SDS011;7649;52.084;7.478;2023-04-29T04:53:16;41.43;;;31.43;;
15096;SDS011;7649;52.084;7.478;2023-04-29T04:55:44;37.57;;;29.93;;
15096;SDS011;7649;52.084;7.478;2023-04-29T04:58:12;39.30;;;30.30;;
15096;SDS011;7649;52.084;7.478;2023-04-29T05:00:42;38.17;;;29.73;;
15096;SDS011;7649;52.084;7.478;2023-04-29T05:03:11;40.60;;;31.77;;
15096;SDS011;7649;52.084;7.478;2023-04-29T05:05:39;39.00;;;29.97;;
15096;SDS011;7649;52.084;7.478;2023-04-29T05:08:09;39.43;;;30.50;;
15096;SDS011;7649;52.084;7.478;2023-04-29T05:10:37;37.73;;;29.90;;
15096;SDS011;7649;52.084;7.478;2023-04-29T05:13:05;39.07;;;31.00;;
15096;SDS011;7649;52.084;7.478;2023-04-29T05:15:33;40.93;;;31.20;;
15096;SDS011;7649;52.084;7.478;2023-04-29T05:18:02;44.17;;;30.80;;
15096;SDS011;7649;52.084;7.478;2023-04-29T05:20:30;41.10;;;30.57;;
15096;SDS011;7649;52.084;7.478;2023-04-29T05:22:59;41.97;;;31.87;;
15096;SDS011;7649;52.084;7.478;2023-04-29T05:25:28;40.50;;;30.70;;
15096;SDS011;7649;52.084;7.478;2023-04-29T05:27:57;42.03;;;30.10;;
15096;SDS011;7649;52.084;7.478;2023-04-29T05:30:25;38.13;;;30.20;;
15096;SDS011;7649;52.084;7.478;2023-04-29T05:32:53;39.23;;;30.17;;
15096;SDS011;7649;52.084;7.478;2023-04-29T05:35:22;38.70;;;31.37;;
15096;SDS011;7649;52.084;7.478;2023-04-29T05:37:50;39.37;;;31.23;;
15096;SDS011;7649;52.084;7.478;2023-04-29T05:40:18;39.73;;;30.80;;
15096;SDS011;7649;52.084;7.478;2023-04-29T05:42:49;37.50;;;30.77;;
15096;SDS011;7649;52.084;7.478;2023-04-29T05:45:18;37.07;;;31.20;;
15096;SDS011;7649;52.084;7.478;2023-04-29T05:47:46;42.70;;;33.50;;
15096;SDS011;7649;52.084;7.478;2023-04-29T05:50:14;42.17;;;33.43;;
15096;SDS011;7649;52.084;7.478;2023-04-29T05:52:43;44.37;;;33.83;;
15096;SDS011;7649;52.084;7.478;2023-04-29T05:55:11;42.43;;;33.50;;
15096;SDS011;7649;52.084;7.478;2023-04-29T05:57:39;42.10;;;33.80;;
15096;SDS011;7649;52.084;7.478;2023-04-29T06:00:09;44.53;;;35.87;;
15096;SDS011;7649;52.084;7.478;2023-04-29T06:02:38;45.83;;;34.87;;
15096;SDS011;7649;52.084;7.478;2023-04-29T06:05:23;44.57;;;33.20;;
15096;SDS011;7649;52.084;7.478;2023-04-29T06:07:52;41.53;;;34.10;;
15096;SDS011;7649;52.084;7.478;2023-04-29T06:10:20;41.57;;;33.83;;
15096;SDS011;7649;52.084;7.478;2023-04-29T06:12:49;46.00;;;34.30;;
15096;SDS011;7649;52.084;7.478;2023-04-29T06:15:18;41.30;;;34.07;;
15096;SDS011;7649;52.084;7.478;2023-04-29T06:17:47;43.43;;;35.47;;
15096;SDS011;7649;52.084;7.478;2023-04-29T06:20:15;46.63;;;32.87;;
15096;SDS011;7649;52.084;7.478;2023-04-29T06:22:43;48.20;;;36.23;;
15096;SDS011;7649;52.084;7.478;2023-04-29T06:25:12;49.67;;;35.53;;
15096;SDS011;7649;52.084;7.478;2023-04-29T06:27:40;46.97;;;34.77;;
15096;SDS011;7649;52.084;7.478;2023-04-29T06:30:09;46.07;;;35.40;;
15096;SDS011;7649;52.084;7.478;2023-04-29T06:32:39;44.80;;;33.30;;
15096;SDS011;7649;52.084;7.478;2023-04-29T06:35:07;41.97;;;33.67;;
15096;SDS011;7649;52.084;7.478;2023-04-29T06:37:36;41.20;;;33.00;;
15096;SDS011;7649;52.084;7.478;2023-04-29T06:40:05;40.27;;;32.87;;
15096;SDS011;7649;52.084;7.478;2023-04-29T06:42:33;42.50;;;31.77;;
15096;SDS011;7649;52.084;7.478;2023-04-29T06:45:02;41.10;;;31.20;;
15096;SDS011;7649;52.084;7.478;2023-04-29T06:47:30;42.67;;;31.27;;
15096;SDS011;7649;52.084;7.478;2023-04-29T06:50:00;40.27;;;31.50;;
15096;SDS011;7649;52.084;7.478;2023-04-29T06:52:29;43.93;;;31.53;;
15096;SDS011;7649;52.084;7.478;2023-04-29T06:54:58;39.00;;;31.33;;
15096;SDS011;7649;52.084;7.478;2023-04-29T06:57:26;38.27;;;29.00;;
15096;SDS011;7649;52.084;7.478;2023-04-29T06:59:54;38.47;;;28.77;;
15096;SDS011;7649;52.084;7.478;2023-04-29T07:02:23;36.23;;;29.43;;
15096;SDS011;7649;52.084;7.478;2023-04-29T07:04:51;35.83;;;29.90;;
15096;SDS011;7649;52.084;7.478;2023-04-29T07:07:22;36.80;;;28.77;;
15096;SDS011;7649;52.084;7.478;2023-04-29T07:09:50;40.33;;;28.50;;
15096;SDS011;7649;52.084;7.478;2023-04-29T07:12:19;35.80;;;28.07;;
15096;SDS011;7649;52.084;7.478;2023-04-29T07:14:48;31.40;;;26.77;;
15096;SDS011;7649;52.084;7.478;2023-04-29T07:17:16;33.43;;;26.67;;
15096;SDS011;7649;52.084;7.478;2023-04-29T07:19:45;32.20;;;26.17;;
15096;SDS011;7649;52.084;7.478;2023-04-29T07:22:14;31.23;;;26.30;;
15096;SDS011;7649;52.084;7.478;2023-04-29T07:24:43;37.27;;;27.23;;
15096;SDS011;7649;52.084;7.478;2023-04-29T07:27:12;35.67;;;26.47;;
15096;SDS011;7649;52.084;7.478;2023-04-29T07:29:40;30.83;;;26.30;;
15096;SDS011;7649;52.084;7.478;2023-04-29T07:32:08;32.47;;;26.70;;
15096;SDS011;7649;52.084;7.478;2023-04-29T07:34:37;30.60;;;24.87;;
15096;SDS011;7649;52.084;7.478;2023-04-29T07:37:05;28.03;;;24.37;;
15096;SDS011;7649;52.084;7.478;2023-04-29T07:39:33;28.90;;;25.37;;
15096;SDS011;7649;52.084;7.478;2023-04-29T07:42:04;30.63;;;23.87;;
15096;SDS011;7649;52.084;7.478;2023-04-29T07:44:32;26.53;;;23.33;;
15096;SDS011;7649;52.084;7.478;2023-04-29T07:47:00;29.53;;;24.20;;
15096;SDS011;7649;52.084;7.478;2023-04-29T07:49:28;27.43;;;23.13;;
15096;SDS011;7649;52.084;7.478;2023-04-29T07:51:56;31.13;;;23.67;;
15096;SDS011;7649;52.084;7.478;2023-04-29T07:54:25;27.73;;;23.80;;
15096;SDS011;7649;52.084;7.478;2023-04-29T07:56:53;28.30;;;23.73;;
15096;SDS011;7649;52.084;7.478;2023-04-29T07:59:23;26.83;;;23.37;;
15096;SDS011;7649;52.084;7.478;2023-04-29T08:01:51;32.37;;;25.27;;
15096;SDS011;7649;52.084;7.478;2023-04-29T08:04:19;27.97;;;22.30;;
15096;SDS011;7649;52.084;7.478;2023-04-29T08:06:48;27.90;;;20.63;;
15096;SDS011;7649;52.084;7.478;2023-04-29T08:09:17;24.00;;;21.40;;
15096;SDS011;7649;52.084;7.478;2023-04-29T08:11:45;28.07;;;21.07;;
15096;SDS011;7649;52.084;7.478;2023-04-29T08:14:14;26.77;;;21.27;;
15096;SDS011;7649;52.084;7.478;2023-04-29T08:16:43;25.57;;;21.63;;
15096;SDS011;7649;52.084;7.478;2023-04-29T08:19:11;27.83;;;22.00;;
15096;SDS011;7649;52.084;7.478;2023-04-29T08:21:44;25.70;;;20.63;;
15096;SDS011;7649;52.084;7.478;2023-04-29T08:24:12;22.20;;;19.47;;
15096;SDS011;7649;52.084;7.478;2023-04-29T08:26:41;21.80;;;19.10;;
15096;SDS011;7649;52.084;7.478;2023-04-29T08:29:09;23.10;;;19.73;;
15096;SDS011;7649;52.084;7.478;2023-04-29T08:31:38;23.37;;;20.10;;
15096;SDS011;7649;52.084;7.478;2023-04-29T08:34:07;24.27;;;18.53;;
15096;SDS011;7649;52.084;7.478;2023-04-29T08:36:36;20.83;;;18.67;;
15096;SDS011;7649;52.084;7.478;2023-04-29T08:39:04;21.93;;;19.20;;
15096;SDS011;7649;52.084;7.478;2023-04-29T08:41:32;25.73;;;19.47;;
15096;SDS011;7649;52.084;7.478;2023-04-29T08:44:00;22.63;;;18.47;;
15096;SDS011;7649;52.084;7.478;2023-04-29T08:46:28;20.30;;;18.17;;
15096;SDS011;7649;52.084;7.478;2023-04-29T08:48:57;21.33;;;17.97;;
15096;SDS011;7649;52.084;7.478;2023-04-29T08:51:28;21.13;;;16.90;;
15096;SDS011;7649;52.084;7.478;2023-04-29T08:53:57;21.27;;;18.30;;
15096;SDS011;7649;52.084;7.478;2023-04-29T08:56:25;21.03;;;17.87;;
15096;SDS011;7649;52.084;7.478;2023-04-29T08:58:54;21.13;;;18.83;;
15096;SDS011;7649;52.084;7.478;2023-04-29T09:01:25;20.43;;;17.50;;
15096;SDS011;7649;52.084;7.478;2023-04-29T09:03:55;21.37;;;17.07;;
15096;SDS011;7649;52.084;7.478;2023-04-29T09:06:30;18.23;;;16.23;;
15096;SDS011;7649;52.084;7.478;2023-04-29T09:08:58;19.90;;;17.57;;
15096;SDS011;7649;52.084;7.478;2023-04-29T09:11:28;17.53;;;15.63;;
15096;SDS011;7649;52.084;7.478;2023-04-29T09:13:58;18.27;;;16.20;;
15096;SDS011;7649;52.084;7.478;2023-04-29T09:16:27;19.93;;;16.33;;
15096;SDS011;7649;52.084;7.478;2023-04-29T09:18:55;18.60;;;15.60;;
15096;SDS011;7649;52.084;7.478;2023-04-29T09:21:24;19.20;;;14.83;;
15096;SDS011;7649;52.084;7.478;2023-04-29T09:23:55;21.10;;;15.30;;
15096;SDS011;7649;52.084;7.478;2023-04-29T09:26:23;16.13;;;14.47;;
15096;SDS011;7649;52.084;7.478;2023-04-29T09:29:04;17.37;;;15.07;;
15096;SDS011;7649;52.084;7.478;2023-04-29T09:31:35;16.17;;;13.37;;
15096;SDS011;7649;52.084;7.478;2023-04-29T09:34:04;15.20;;;13.60;;
15096;SDS011;7649;52.084;7.478;2023-04-29T09:36:36;15.80;;;13.53;;
15096;SDS011;7649;52.084;7.478;2023-04-29T09:39:06;14.20;;;12.87;;
15096;SDS011;7649;52.084;7.478;2023-04-29T09:41:38;19.57;;;13.30;;
15096;SDS011;7649;52.084;7.478;2023-04-29T09:44:06;17.37;;;13.07;;
15096;SDS011;7649;52.084;7.478;2023-04-29T09:46:35;14.70;;;12.37;;
15096;SDS011;7649;52.084;7.478;2023-04-29T09:49:05;15.53;;;13.07;;
15096;SDS011;7649;52.084;7.478;2023-04-29T09:51:53;14.00;;;11.90;;
15096;SDS011;7649;52.084;7.478;2023-04-29T09:54:24;13.70;;;11.53;;
15096;SDS011;7649;52.084;7.478;2023-04-29T09:56:54;14.17;;;12.40;;
15096;SDS011;7649;52.084;7.478;2023-04-29T09:59:22;14.07;;;11.80;;
15096;SDS011;7649;52.084;7.478;2023-04-29T10:01:51;14.03;;;11.87;;
15096;SDS011;7649;52.084;7.478;2023-04-29T10:04:20;12.97;;;11.50;;
15096;SDS011;7649;52.084;7.478;2023-04-29T10:06:50;13.83;;;11.47;;
15096;SDS011;7649;52.084;7.478;2023-04-29T10:09:18;13.53;;;11.00;;
15096;SDS011;7649;52.084;7.478;2023-04-29T10:11:49;13.27;;;10.70;;
15096;SDS011;7649;52.084;7.478;2023-04-29T10:14:18;13.10;;;10.90;;
15096;SDS011;7649;52.084;7.478;2023-04-29T10:16:47;13.70;;;11.13;;
15096;SDS011;7649;52.084;7.478;2023-04-29T10:19:23;14.57;;;11.63;;
15096;SDS011;7649;52.084;7.478;2023-04-29T10:24:44;14.80;;;10.97;;
15096;SDS011;7649;52.084;7.478;2023-04-29T10:27:15;12.70;;;11.40;;
15096;SDS011;7649;52.084;7.478;2023-04-29T10:29:44;15.53;;;11.33;;
15096;SDS011;7649;52.084;7.478;2023-04-29T10:32:12;11.67;;;10.23;;
15096;SDS011;7649;52.084;7.478;2023-04-29T10:34:41;11.07;;;10.03;;
15096;SDS011;7649;52.084;7.478;2023-04-29T10:37:10;13.77;;;10.23;;
15096;SDS011;7649;52.084;7.478;2023-04-29T10:39:41;13.80;;;11.00;;
15096;SDS011;7649;52.084;7.478;2023-04-29T10:42:19;12.33;;;9.90;;
15096;SDS011;7649;52.084;7.478;2023-04-29T10:47:35;12.87;;;10.67;;
15096;SDS011;7649;52.084;7.478;2023-04-29T10:50:03;13.10;;;10.00;;
15096;SDS011;7649;52.084;7.478;2023-04-29T10:55:15;12.45;;;11.15;;
15096;SDS011;7649;52.084;7.478;2023-04-29T10:57:44;12.68;;;10.13;;
15096;SDS011;7649;52.084;7.478;2023-04-29T11:00:20;10.35;;;9.35;;
15096;SDS011;7649;52.084;7.478;2023-04-29T11:02:49;13.48;;;10.20;;
15096;SDS011;7649;52.084;7.478;2023-04-29T11:05:18;11.00;;;10.00;;
15096;SDS011;7649;52.084;7.478;2023-04-29T11:10:41;10.87;;;9.80;;
15096;SDS011;7649;52.084;7.478;2023-04-29T11:13:21;12.18;;;10.40;;
15096;SDS011;7649;52.084;7.478;2023-04-29T11:15:52;11.67;;;9.80;;
15096;SDS011;7649;52.084;7.478;2023-04-29T11:18:22;12.87;;;9.70;;
15096;SDS011;7649;52.084;7.478;2023-04-29T11:23:37;9.77;;;8.80;;
15096;SDS011;7649;52.084;7.478;2023-04-29T11:26:06;10.43;;;9.43;;
15096;SDS011;7649;52.084;7.478;2023-04-29T11:28:36;9.77;;;8.77;;
15096;SDS011;7649;52.084;7.478;2023-04-29T11:31:04;11.90;;;9.37;;
15096;SDS011;7649;52.084;7.478;2023-04-29T11:33:34;10.57;;;9.47;;
15096;SDS011;7649;52.084;7.478;2023-04-29T11:36:03;12.47;;;9.17;;
15096;SDS011;7649;52.084;7.478;2023-04-29T11:38:31;10.70;;;9.70;;
15096;SDS011;7649;52.084;7.478;2023-04-29T11:41:01;12.80;;;10.43;;
15096;SDS011;7649;52.084;7.478;2023-04-29T11:43:30;12.60;;;10.13;;
15096;SDS011;7649;52.084;7.478;2023-04-29T11:46:00;13.37;;;10.50;;
15096;SDS011;7649;52.084;7.478;2023-04-29T11:48:28;12.47;;;10.03;;
15096;SDS011;7649;52.084;7.478;2023-04-29T11:50:57;12.17;;;9.87;;
15096;SDS011;7649;52.084;7.478;2023-04-29T11:53:26;9.93;;;9.03;;
15096;SDS011;7649;52.084;7.478;2023-04-29T11:55:54;11.13;;;8.80;;
15096;SDS011;7649;52.084;7.478;2023-04-29T11:58:23;10.13;;;8.30;;
15096;SDS011;7649;52.084;7.478;2023-04-29T12:00:51;12.17;;;9.43;;
15096;SDS011;7649;52.084;7.478;2023-04-29T12:03:21;10.63;;;9.63;;
15096;SDS011;7649;52.084;7.478;2023-04-29T12:05:50;12.73;;;9.83;;
15096;SDS011;7649;52.084;7.478;2023-04-29T12:08:19;13.33;;;10.00;;
15096;SDS011;7649;52.084;7.478;2023-04-29T12:10:47;10.93;;;9.27;;
15096;SDS011;7649;52.084;7.478;2023-04-29T12:13:16;15.30;;;10.37;;
15096;SDS011;7649;52.084;7.478;2023-04-29T12:15:45;11.73;;;9.87;;
15096;SDS011;7649;52.084;7.478;2023-04-29T12:18:14;11.80;;;9.23;;
15096;SDS011;7649;52.084;7.478;2023-04-29T12:20:45;10.43;;;9.37;;
15096;SDS011;7649;52.084;7.478;2023-04-29T12:23:14;10.70;;;9.47;;
15096;SDS011;7649;52.084;7.478;2023-04-29T12:25:47;11.30;;;8.67;;
15096;SDS011;7649;52.084;7.478;2023-04-29T12:28:16;9.30;;;8.37;;
15096;SDS011;7649;52.084;7.478;2023-04-29T12:30:45;9.27;;;7.93;;
15096;SDS011;7649;52.084;7.478;2023-04-29T12:33:20;8.50;;;7.70;;
15096;SDS011;7649;52.084;7.478;2023-04-29T12:35:50;9.90;;;7.67;;
15096;SDS011;7649;52.084;7.478;2023-04-29T12:38:21;8.20;;;7.23;;
15096;SDS011;7649;52.084;7.478;2023-04-29T12:40:50;7.83;;;6.97;;
15096;SDS011;7649;52.084;7.478;2023-04-29T12:43:18;7.00;;;6.30;;
15096;SDS011;7649;52.084;7.478;2023-04-29T12:45:47;7.33;;;6.63;;
15096;SDS011;7649;52.084;7.478;2023-04-29T12:48:15;8.07;;;7.27;;
15096;SDS011;7649;52.084;7.478;2023-04-29T12:50:56;9.83;;;6.67;;
15096;SDS011;7649;52.084;7.478;2023-04-29T12:53:25;8.63;;;6.77;;
15096;SDS011;7649;52.084;7.478;2023-04-29T12:55:53;6.67;;;5.97;;
15096;SDS011;7649;52.084;7.478;2023-04-29T12:58:22;6.70;;;6.10;;
15096;SDS011;7649;52.084;7.478;2023-04-29T13:00:50;9.40;;;5.87;;
15096;SDS011;7649;52.084;7.478;2023-04-29T13:03:19;9.07;;;5.93;;
15096;SDS011;7649;52.084;7.478;2023-04-29T13:05:48;8.30;;;5.50;;
15096;SDS011;7649;52.084;7.478;2023-04-29T13:08:20;6.35;;;5.70;;
15096;SDS011;7649;52.084;7.478;2023-04-29T13:10:48;8.20;;;6.30;;
15096;SDS011;7649;52.084;7.478;2023-04-29T13:13:17;6.45;;;5.85;;
15096;SDS011;7649;52.084;7.478;2023-04-29T13:15:45;6.78;;;5.55;;
15096;SDS011;7649;52.084;7.478;2023-04-29T13:18:14;5.68;;;4.70;;
15096;SDS011;7649;52.084;7.478;2023-04-29T13:20:42;5.68;;;4.78;;
15096;SDS011;7649;52.084;7.478;2023-04-29T13:23:10;6.03;;;5.47;;
15096;SDS011;7649;52.084;7.478;2023-04-29T13:25:40;6.50;;;5.70;;
15096;SDS011;7649;52.084;7.478;2023-04-29T13:28:08;6.70;;;6.07;;
15096;SDS011;7649;52.084;7.478;2023-04-29T13:30:37;7.60;;;5.95;;
15096;SDS011;7649;52.084;7.478;2023-04-29T13:33:05;6.43;;;5.70;;
15096;SDS011;7649;52.084;7.478;2023-04-29T13:35:38;6.70;;;6.03;;
15096;SDS011;7649;52.084;7.478;2023-04-29T13:38:07;7.97;;;6.28;;
15096;SDS011;7649;52.084;7.478;2023-04-29T13:40:35;7.45;;;5.82;;
15096;SDS011;7649;52.084;7.478;2023-04-29T13:43:12;5.90;;;5.43;;
15096;SDS011;7649;52.084;7.478;2023-04-29T13:45:57;7.00;;;5.32;;
15096;SDS011;7649;52.084;7.478;2023-04-29T13:48:26;6.03;;;5.47;;
15096;SDS011;7649;52.084;7.478;2023-04-29T13:51:14;6.57;;;5.97;;
15096;SDS011;7649;52.084;7.478;2023-04-29T13:53:45;7.97;;;6.35;;
15096;SDS011;7649;52.084;7.478;2023-04-29T13:56:16;6.32;;;5.53;;
15096;SDS011;7649;52.084;7.478;2023-04-29T13:58:49;8.30;;;5.80;;
15096;SDS011;7649;52.084;7.478;2023-04-29T14:01:37;6.93;;;5.75;;
15096;SDS011;7649;52.084;7.478;2023-04-29T14:04:08;5.28;;;4.80;;
15096;SDS011;7649;52.084;7.478;2023-04-29T14:06:37;5.80;;;4.50;;
15096;SDS011;7649;52.084;7.478;2023-04-29T14:09:05;5.03;;;4.43;;
15096;SDS011;7649;52.084;7.478;2023-04-29T14:11:34;4.40;;;4.10;;
15096;SDS011;7649;52.084;7.478;2023-04-29T14:14:03;5.22;;;4.57;;
15096;SDS011;7649;52.084;7.478;2023-04-29T14:16:32;5.47;;;4.97;;
15096;SDS011;7649;52.084;7.478;2023-04-29T14:19:00;7.63;;;5.35;;
15096;SDS011;7649;52.084;7.478;2023-04-29T14:21:29;5.63;;;5.13;;
15096;SDS011;7649;52.084;7.478;2023-04-29T14:23:58;6.80;;;5.40;;
15096;SDS011;7649;52.084;7.478;2023-04-29T14:26:27;5.97;;;5.47;;
15096;SDS011;7649;52.084;7.478;2023-04-29T14:28:56;6.50;;;5.55;;
15096;SDS011;7649;52.084;7.478;2023-04-29T14:31:27;5.80;;;5.32;;
15096;SDS011;7649;52.084;7.478;2023-04-29T14:33:56;7.00;;;5.22;;
15096;SDS011;7649;52.084;7.478;2023-04-29T14:36:25;5.38;;;4.60;;
15096;SDS011;7649;52.084;7.478;2023-04-29T14:38:53;8.73;;;6.28;;
15096;SDS011;7649;52.084;7.478;2023-04-29T14:41:21;5.22;;;4.63;;
15096;SDS011;7649;52.084;7.478;2023-04-29T14:43:49;4.90;;;4.50;;
15096;SDS011;7649;52.084;7.478;2023-04-29T14:46:18;5.05;;;4.55;;
15096;SDS011;7649;52.084;7.478;2023-04-29T14:48:48;6.00;;;4.07;;
15096;SDS011;7649;52.084;7.478;2023-04-29T14:51:17;5.10;;;4.07;;
15096;SDS011;7649;52.084;7.478;2023-04-29T14:53:45;4.80;;;4.30;;
15096;SDS011;7649;52.084;7.478;2023-04-29T14:56:14;4.00;;;3.70;;
15096;SDS011;7649;52.084;7.478;2023-04-29T14:58:43;4.70;;;4.30;;
15096;SDS011;7649;52.084;7.478;2023-04-29T15:01:11;4.97;;;4.15;;
15096;SDS011;7649;52.084;7.478;2023-04-29T15:03:39;4.15;;;3.85;;
15096;SDS011;7649;52.084;7.478;2023-04-29T15:06:11;4.95;;;3.75;;
15096;SDS011;7649;52.084;7.478;2023-04-29T15:08:40;5.70;;;3.65;;